Time;durP1;ratioP1;P1;durP2;ratioP2;P2;SDS_P1;SDS_P2;PMS_P1;PMS_P2;Temp;Humidity;BMP_temperature;BMP_pressure;BME280_temperature;BME280_humidity;BME280_pressure;Samples;Min_cycle;Max_cycle;Signal;HPM_P1;HPM_P2
2022/05/20 00:02:14;;;;;;;15.40;8.10;;;;;;;;;;4945951;28;20046;-57
2022/05/20 00:04:40;;;;;;;14.93;8.93;;;;;;;;;;4946912;28;20074;-57
2022/05/20 00:07:07;;;;;;;16.63;8.38;;;;;;;;;;4947011;28;20044;-57
2022/05/20 00:09:33;;;;;;;12.57;8.60;;;;;;;;;;4946941;28;20497;-57
2022/05/20 00:11:59;;;;;;;14.77;8.60;;;;;;;;;;4946001;28;20055;-57
2022/05/20 00:14:26;;;;;;;13.73;8.60;;;;;;;;;;4946896;28;20130;-57
2022/05/20 00:16:53;;;;;;;13.27;9.23;;;;;;;;;;4946693;28;20039;-57
2022/05/20 00:19:19;;;;;;;13.15;9.63;;;;;;;;;;4938716;28;20184;-58
2022/05/20 00:21:45;;;;;;;14.65;9.80;;;;;;;;;;4946951;28;20051;-57
2022/05/20 00:24:11;;;;;;;13.05;9.18;;;;;;;;;;4946924;28;20106;-57
2022/05/20 00:26:37;;;;;;;14.77;9.35;;;;;;;;;;4945499;28;20039;-58
2022/05/20 00:29:03;;;;;;;13.75;9.20;;;;;;;;;;4947232;29;20054;-57
2022/05/20 00:31:29;;;;;;;14.20;9.48;;;;;;;;;;4945865;29;20417;-57
2022/05/20 00:33:56;;;;;;;19.25;10.00;;;;;;;;;;4949322;28;20055;-57
2022/05/20 00:36:22;;;;;;;16.50;9.23;;;;;;;;;;4950209;28;20560;-58
2022/05/20 00:38:49;;;;;;;18.02;10.45;;;;;;;;;;4950798;29;20487;-57
2022/05/20 00:41:15;;;;;;;15.65;9.30;;;;;;;;;;4949746;28;20106;-57
2022/05/20 00:43:43;;;;;;;18.70;10.27;;;;;;;;;;4950503;29;20090;-57
2022/05/20 00:46:11;;;;;;;14.07;8.93;;;;;;;;;;4949653;29;20057;-58
2022/05/20 00:48:38;;;;;;;23.48;9.75;;;;;;;;;;4950098;28;20049;-57
2022/05/20 00:51:18;;;;;;;14.63;9.15;;;;;;;;;;4950483;28;20055;-57
2022/05/20 00:53:48;;;;;;;13.88;9.82;;;;;;;;;;4950267;28;20047;-57
2022/05/20 00:56:16;;;;;;;16.60;9.18;;;;;;;;;;4948959;28;20047;-57
2022/05/20 00:58:42;;;;;;;18.90;9.52;;;;;;;;;;4948892;29;20043;-57
2022/05/20 01:01:09;;;;;;;14.90;9.00;;;;;;;;;;4950100;28;20043;-57
2022/05/20 01:03:36;;;;;;;17.15;8.90;;;;;;;;;;4950000;28;20051;-57
2022/05/20 01:06:02;;;;;;;16.25;8.52;;;;;;;;;;4950566;28;20039;-57
2022/05/20 01:08:30;;;;;;;12.05;8.60;;;;;;;;;;4949397;28;20051;-57
2022/05/20 01:10:56;;;;;;;13.00;8.23;;;;;;;;;;4949090;28;20051;-57
2022/05/20 01:13:24;;;;;;;15.85;7.95;;;;;;;;;;4958371;23;20496;-57
2022/05/20 01:15:50;;;;;;;;;;;;;;;;;;4945345;29;20047;-57
2022/05/20 01:18:17;;;;;;;12.75;8.40;;;;;;;;;;4949642;29;20384;-58
2022/05/20 01:20:46;;;;;;;10.82;6.97;;;;;;;;;;4950301;29;20053;-57
2022/05/20 01:23:15;;;;;;;14.70;7.78;;;;;;;;;;4949457;29;20047;-57
2022/05/20 01:25:43;;;;;;;12.55;8.10;;;;;;;;;;4949331;29;20156;-57
2022/05/20 01:28:10;;;;;;;;;;;;;;;;;;4950257;29;20051;-57
2022/05/20 01:30:37;;;;;;;11.80;7.18;;;;;;;;;;4949321;28;20364;-58
2022/05/20 01:33:04;;;;;;;12.85;7.10;;;;;;;;;;4948313;29;20047;-57
2022/05/20 01:35:46;;;;;;;14.93;6.90;;;;;;;;;;4949743;29;20047;-57
2022/05/20 01:38:12;;;;;;;13.80;6.32;;;;;;;;;;4949739;29;20370;-57
2022/05/20 01:40:46;;;;;;;13.85;6.97;;;;;;;;;;4948736;29;20046;-57
2022/05/20 01:43:15;;;;;;;12.43;7.38;;;;;;;;;;4949345;28;20404;-57
2022/05/20 01:45:55;;;;;;;11.30;7.07;;;;;;;;;;4948844;29;20442;-57
2022/05/20 01:48:26;;;;;;;13.82;7.38;;;;;;;;;;4949430;29;20596;-57
2022/05/20 01:50:54;;;;;;;14.90;7.72;;;;;;;;;;4948233;29;20134;-57
2022/05/20 01:53:24;;;;;;;16.98;9.20;;;;;;;;;;4949046;29;20047;-57
2022/05/20 01:55:53;;;;;;;13.90;8.40;;;;;;;;;;4948618;29;20046;-58
2022/05/20 01:58:23;;;;;;;16.98;8.38;;;;;;;;;;4947756;29;20082;-57
2022/05/20 02:00:50;;;;;;;14.50;7.40;;;;;;;;;;4949437;29;20130;-57
2022/05/20 02:03:23;;;;;;;15.93;8.18;;;;;;;;;;4948980;29;20524;-57
2022/05/20 02:06:01;;;;;;;14.82;7.78;;;;;;;;;;4948951;29;20091;-57
2022/05/20 02:08:30;;;;;;;16.10;8.63;;;;;;;;;;4949042;29;20051;-57
2022/05/20 02:11:01;;;;;;;13.20;7.82;;;;;;;;;;4948252;29;20401;-56
2022/05/20 02:13:28;;;;;;;16.23;8.48;;;;;;;;;;4948289;29;20608;-58
2022/05/20 02:15:57;;;;;;;14.23;8.50;;;;;;;;;;4948877;29;20405;-57
2022/05/20 02:18:28;;;;;;;15.80;8.32;;;;;;;;;;4948378;29;20409;-58
2022/05/20 02:20:57;;;;;;;18.02;8.35;;;;;;;;;;4949098;29;20508;-57
2022/05/20 02:23:25;;;;;;;16.30;8.45;;;;;;;;;;4948360;29;20375;-57
2022/05/20 02:25:53;;;;;;;16.40;7.93;;;;;;;;;;4948174;29;20537;-57
2022/05/20 02:28:23;;;;;;;16.08;8.13;;;;;;;;;;4947833;29;20035;-57
2022/05/20 02:30:50;;;;;;;14.73;8.75;;;;;;;;;;4948622;29;20051;-57
2022/05/20 02:33:20;;;;;;;13.43;8.30;;;;;;;;;;4948108;29;20089;-57
2022/05/20 02:35:46;;;;;;;13.48;8.40;;;;;;;;;;4948587;29;20401;-58
2022/05/20 02:38:14;;;;;;;12.50;7.93;;;;;;;;;;4948638;29;20047;-58
2022/05/20 02:40:41;;;;;;;15.13;7.72;;;;;;;;;;4947298;29;20054;-57
2022/05/20 02:43:08;;;;;;;18.17;9.30;;;;;;;;;;4948442;29;20054;-57
2022/05/20 02:45:35;;;;;;;14.70;8.73;;;;;;;;;;4947969;29;20049;-57
2022/05/20 02:48:01;;;;;;;14.02;8.02;;;;;;;;;;4948991;29;20047;-57
2022/05/20 02:50:27;;;;;;;13.18;8.32;;;;;;;;;;4947987;29;20054;-57
2022/05/20 02:52:53;;;;;;;16.42;8.68;;;;;;;;;;4948254;29;20043;-57
2022/05/20 02:55:19;;;;;;;14.05;8.15;;;;;;;;;;4946138;28;20055;-58
2022/05/20 02:57:45;;;;;;;13.70;8.52;;;;;;;;;;4947033;29;20105;-58
2022/05/20 03:05:43;;;;;;;15.25;8.95;;;;;;;;;;4946835;29;20073;-58
2022/05/20 03:08:09;;;;;;;14.10;8.40;;;;;;;;;;4948027;29;20047;-57
2022/05/20 03:10:35;;;;;;;16.63;9.45;;;;;;;;;;4946910;29;20123;-57
2022/05/20 03:13:04;;;;;;;15.52;8.55;;;;;;;;;;4948001;29;20051;-57
2022/05/20 03:15:30;;;;;;;13.90;8.52;;;;;;;;;;4947197;29;20511;-57
2022/05/20 03:17:56;;;;;;;14.10;7.93;;;;;;;;;;4948114;29;20127;-58
2022/05/20 03:20:23;;;;;;;15.93;8.48;;;;;;;;;;4947594;29;20074;-57
2022/05/20 03:22:49;;;;;;;18.30;9.25;;;;;;;;;;4947788;29;20125;-58
2022/05/20 03:25:16;;;;;;;18.30;9.63;;;;;;;;;;4946712;29;20055;-57
2022/05/20 03:27:42;;;;;;;17.95;9.73;;;;;;;;;;4947978;29;20229;-57
2022/05/20 03:30:09;;;;;;;15.82;9.25;;;;;;;;;;4947208;29;20138;-57
2022/05/20 03:32:37;;;;;;;14.18;9.30;;;;;;;;;;4947539;29;20061;-57
2022/05/20 03:35:03;;;;;;;21.40;10.70;;;;;;;;;;4947885;29;20066;-57
2022/05/20 03:37:29;;;;;;;16.33;10.07;;;;;;;;;;4947134;29;20055;-57
2022/05/20 03:39:55;;;;;;;20.35;9.82;;;;;;;;;;4947009;29;20106;-57
2022/05/20 03:42:23;;;;;;;20.77;10.30;;;;;;;;;;4947318;29;20050;-57
2022/05/20 03:44:49;;;;;;;14.82;9.70;;;;;;;;;;4947028;29;20110;-58
2022/05/20 03:47:15;;;;;;;16.80;9.73;;;;;;;;;;4947275;29;20039;-57
2022/05/20 03:49:42;;;;;;;19.90;10.05;;;;;;;;;;4947566;29;20047;-58
2022/05/20 03:52:09;;;;;;;17.35;9.98;;;;;;;;;;4947151;29;20051;-56
2022/05/20 03:54:35;;;;;;;17.00;10.90;;;;;;;;;;4946441;29;20039;-57
2022/05/20 03:57:02;;;;;;;18.83;11.45;;;;;;;;;;4946314;29;20081;-57
2022/05/20 03:59:29;;;;;;;15.48;11.20;;;;;;;;;;4946896;29;20054;-57
2022/05/20 04:01:56;;;;;;;17.00;11.02;;;;;;;;;;4947315;29;20059;-57
2022/05/20 04:04:23;;;;;;;19.00;12.37;;;;;;;;;;4945881;29;20074;-57
2022/05/20 04:06:49;;;;;;;19.60;12.30;;;;;;;;;;4947045;29;20062;-57
2022/05/20 04:09:16;;;;;;;17.67;11.98;;;;;;;;;;4946725;29;20040;-57
2022/05/20 04:11:42;;;;;;;22.75;11.80;;;;;;;;;;4946056;29;20055;-57
2022/05/20 04:14:08;;;;;;;17.35;12.07;;;;;;;;;;4946681;29;20055;-57
2022/05/20 04:16:35;;;;;;;16.85;12.73;;;;;;;;;;4947219;29;20058;-57
2022/05/20 04:19:01;;;;;;;18.95;12.88;;;;;;;;;;4947506;29;20492;-57
2022/05/20 04:21:27;;;;;;;18.30;12.30;;;;;;;;;;4946664;29;20055;-57
2022/05/20 04:23:53;;;;;;;16.40;12.38;;;;;;;;;;4946909;29;20036;-57
2022/05/20 04:26:19;;;;;;;17.88;12.52;;;;;;;;;;4935895;29;20052;-57
2022/05/20 04:28:45;;;;;;;22.05;12.88;;;;;;;;;;4926520;29;20123;-57
2022/05/20 04:31:12;;;;;;;18.77;12.88;;;;;;;;;;4927633;29;20130;-57
2022/05/20 04:33:39;;;;;;;17.45;11.55;;;;;;;;;;4927423;29;20557;-57
2022/05/20 04:36:06;;;;;;;14.73;11.15;;;;;;;;;;4927626;29;20062;-57
2022/05/20 04:38:33;;;;;;;17.70;12.00;;;;;;;;;;4927943;29;20047;-57
2022/05/20 04:49:14;;;;;;;17.77;11.18;;;;;;;;;;4927427;29;20048;-57
2022/05/20 04:51:41;;;;;;;16.67;10.25;;;;;;;;;;4927398;29;20439;-57
2022/05/20 04:56:52;;;;;;;19.45;11.23;;;;;;;;;;4927496;29;20157;-57
2022/05/20 04:59:20;;;;;;;20.40;12.35;;;;;;;;;;4927456;29;20138;-57
2022/05/20 05:01:46;;;;;;;18.00;11.32;;;;;;;;;;4927477;29;20052;-57
2022/05/20 05:04:12;;;;;;;18.30;11.30;;;;;;;;;;4926017;29;20126;-57
2022/05/20 05:06:39;;;;;;;16.92;12.07;;;;;;;;;;4927502;29;20148;-57
2022/05/20 05:09:05;;;;;;;20.98;12.20;;;;;;;;;;4927108;29;20146;-58
2022/05/20 05:11:31;;;;;;;22.00;12.23;;;;;;;;;;4926675;29;20525;-57
2022/05/20 05:13:57;;;;;;;19.90;12.93;;;;;;;;;;4929177;29;20505;-57
2022/05/20 05:16:23;;;;;;;17.17;11.32;;;;;;;;;;4945311;29;20386;-57
2022/05/20 05:18:50;;;;;;;20.70;11.52;;;;;;;;;;4944996;28;20134;-58
2022/05/20 05:21:17;;;;;;;23.23;12.50;;;;;;;;;;4949055;29;20512;-58
2022/05/20 05:23:44;;;;;;;18.00;11.73;;;;;;;;;;4949855;29;20062;-57
2022/05/20 05:26:10;;;;;;;18.27;10.82;;;;;;;;;;4948598;29;20043;-57
2022/05/20 05:28:36;;;;;;;18.77;12.35;;;;;;;;;;4946048;29;20047;-58
2022/05/20 05:31:02;;;;;;;18.65;12.00;;;;;;;;;;4948010;29;20051;-57
2022/05/20 05:33:28;;;;;;;17.95;10.85;;;;;;;;;;4947429;29;20046;-57
2022/05/20 05:35:55;;;;;;;19.15;11.15;;;;;;;;;;4946225;29;20633;-58
2022/05/20 05:38:21;;;;;;;20.65;9.70;;;;;;;;;;4941558;28;20050;-57
2022/05/20 05:40:47;;;;;;;19.75;10.45;;;;;;;;;;4937906;29;20161;-58
2022/05/20 05:43:13;;;;;;;15.20;10.27;;;;;;;;;;4937714;29;20043;-56
2022/05/20 05:45:39;;;;;;;13.95;9.25;;;;;;;;;;4938681;28;20051;-58
2022/05/20 05:48:07;;;;;;;17.40;9.95;;;;;;;;;;4948773;29;20055;-57
2022/05/20 05:50:34;;;;;;;14.05;8.90;;;;;;;;;;4939106;29;20102;-57
2022/05/20 05:53:06;;;;;;;15.48;8.88;;;;;;;;;;4933642;29;20043;-58
2022/05/20 05:55:32;;;;;;;18.20;9.63;;;;;;;;;;4929025;29;20536;-57
2022/05/20 05:57:58;;;;;;;14.13;9.20;;;;;;;;;;4929527;29;20046;-58
2022/05/20 06:00:25;;;;;;;13.15;8.80;;;;;;;;;;4929229;29;20075;-57
2022/05/20 06:02:51;;;;;;;19.02;10.35;;;;;;;;;;4934194;29;20047;-58
2022/05/20 06:05:20;;;;;;;14.23;9.40;;;;;;;;;;4946340;29;20098;-59
2022/05/20 06:07:47;;;;;;;13.93;8.40;;;;;;;;;;4942798;29;20031;-59
2022/05/20 06:10:14;;;;;;;11.30;7.72;;;;;;;;;;4945457;29;20122;-58
2022/05/20 06:12:42;;;;;;;16.95;8.30;;;;;;;;;;4944720;29;20042;-58
2022/05/20 06:15:15;;;;;;;16.05;8.20;;;;;;;;;;4945334;29;20145;-59
2022/05/20 06:17:41;;;;;;;16.58;8.07;;;;;;;;;;4944785;29;20058;-58
2022/05/20 06:20:08;;;;;;;13.02;8.18;;;;;;;;;;4945448;29;20042;-58
2022/05/20 06:22:34;;;;;;;16.33;7.65;;;;;;;;;;4946528;29;20043;-58
2022/05/20 06:25:00;;;;;;;13.68;7.70;;;;;;;;;;4948434;28;20031;-58
2022/05/20 06:27:26;;;;;;;15.45;9.13;;;;;;;;;;4948076;28;20122;-58
2022/05/20 06:29:52;;;;;;;15.50;8.15;;;;;;;;;;4947905;28;20044;-58
2022/05/20 06:32:19;;;;;;;18.50;10.13;;;;;;;;;;4947633;29;20043;-58
2022/05/20 06:40:16;;;;;;;16.60;8.55;;;;;;;;;;4946968;29;20054;-58
2022/05/20 06:42:43;;;;;;;16.40;8.52;;;;;;;;;;4945162;29;20110;-59
2022/05/20 06:45:10;;;;;;;16.95;8.88;;;;;;;;;;4947935;28;20054;-58
2022/05/20 06:47:36;;;;;;;15.25;9.15;;;;;;;;;;4948172;29;20066;-58
2022/05/20 06:50:03;;;;;;;12.38;7.72;;;;;;;;;;4948695;29;20481;-59
2022/05/20 06:52:29;;;;;;;15.32;7.50;;;;;;;;;;4948014;29;20039;-58
2022/05/20 06:54:55;;;;;;;9.90;7.03;;;;;;;;;;4946723;29;20051;-59
2022/05/20 06:57:24;;;;;;;12.10;7.20;;;;;;;;;;4948054;29;20126;-58
2022/05/20 06:59:51;;;;;;;13.00;6.72;;;;;;;;;;4947909;28;20099;-58
2022/05/20 07:02:17;;;;;;;13.70;7.40;;;;;;;;;;4946809;29;20039;-58
2022/05/20 07:04:44;;;;;;;13.23;7.30;;;;;;;;;;4947464;29;20501;-59
2022/05/20 07:07:10;;;;;;;9.68;7.35;;;;;;;;;;4947749;28;20054;-58
2022/05/20 07:09:36;;;;;;;13.40;6.75;;;;;;;;;;4944032;28;20521;-59
2022/05/20 07:12:02;;;;;;;11.82;6.55;;;;;;;;;;4943244;29;20054;-58
2022/05/20 07:14:28;;;;;;;9.93;5.75;;;;;;;;;;4943929;29;20134;-58
2022/05/20 07:16:55;;;;;;;10.82;6.80;;;;;;;;;;4944358;29;20069;-58
2022/05/20 07:19:21;;;;;;;11.38;7.22;;;;;;;;;;4944460;29;20086;-58
2022/05/20 07:21:47;;;;;;;16.38;8.35;;;;;;;;;;4945478;29;20153;-59
2022/05/20 07:24:14;;;;;;;13.88;7.25;;;;;;;;;;4942858;29;20051;-59
2022/05/20 07:26:40;;;;;;;18.08;8.23;;;;;;;;;;4945562;29;20441;-58
2022/05/20 07:29:08;;;;;;;16.08;7.80;;;;;;;;;;4945089;29;20047;-58
2022/05/20 07:31:34;;;;;;;14.25;8.15;;;;;;;;;;4945207;28;20047;-58
2022/05/20 07:34:01;;;;;;;13.60;7.45;;;;;;;;;;4942450;29;20058;-58
2022/05/20 07:36:27;;;;;;;12.57;6.60;;;;;;;;;;4944745;29;20074;-58
2022/05/20 07:38:54;;;;;;;12.68;6.93;;;;;;;;;;4943075;29;20047;-58
2022/05/20 07:41:22;;;;;;;12.02;6.78;;;;;;;;;;4942170;28;20047;-58
2022/05/20 07:43:49;;;;;;;11.90;7.43;;;;;;;;;;4944163;29;20489;-59
2022/05/20 07:46:15;;;;;;;14.55;8.40;;;;;;;;;;4943575;29;20525;-58
2022/05/20 07:48:41;;;;;;;18.85;8.93;;;;;;;;;;4944836;29;20077;-58
2022/05/20 07:51:09;;;;;;;15.23;9.90;;;;;;;;;;4944626;28;20130;-58
2022/05/20 07:53:40;;;;;;;14.85;7.97;;;;;;;;;;4944860;29;20059;-58
2022/05/20 07:56:10;;;;;;;14.43;7.28;;;;;;;;;;4944309;29;20070;-59
2022/05/20 07:58:39;;;;;;;10.40;6.63;;;;;;;;;;4944461;29;20130;-58
2022/05/20 08:01:05;;;;;;;12.60;7.55;;;;;;;;;;4944418;29;20061;-58
2022/05/20 08:06:19;;;;;;;12.43;8.40;;;;;;;;;;4943333;29;20125;-58
2022/05/20 08:08:45;;;;;;;13.13;7.35;;;;;;;;;;4944097;29;20067;-58
2022/05/20 08:11:11;;;;;;;10.60;6.43;;;;;;;;;;4941827;29;20071;-58
2022/05/20 08:13:37;;;;;;;11.68;7.13;;;;;;;;;;4943991;29;20118;-58
2022/05/20 08:16:03;;;;;;;13.15;6.97;;;;;;;;;;4944310;29;20509;-58
2022/05/20 08:18:30;;;;;;;10.35;6.63;;;;;;;;;;4944603;29;20043;-58
2022/05/20 08:20:56;;;;;;;13.77;7.32;;;;;;;;;;4942222;29;20066;-58
2022/05/20 08:23:23;;;;;;;9.43;6.63;;;;;;;;;;4944115;28;20062;-58
2022/05/20 08:25:49;;;;;;;11.35;6.60;;;;;;;;;;4943450;29;20090;-58
2022/05/20 08:28:15;;;;;;;12.23;6.70;;;;;;;;;;4943919;29;20047;-58
2022/05/20 08:30:41;;;;;;;10.98;5.97;;;;;;;;;;4944245;28;20213;-59
2022/05/20 08:33:07;;;;;;;13.65;6.22;;;;;;;;;;4944266;28;20042;-58
2022/05/20 08:35:33;;;;;;;10.93;5.78;;;;;;;;;;4942477;29;20094;-58
2022/05/20 08:38:02;;;;;;;10.27;5.38;;;;;;;;;;4944168;28;20504;-58
2022/05/20 08:40:31;;;;;;;10.43;5.57;;;;;;;;;;4942595;29;20078;-59
2022/05/20 08:42:58;;;;;;;10.57;6.15;;;;;;;;;;4944893;28;20098;-59
2022/05/20 08:45:26;;;;;;;9.68;5.82;;;;;;;;;;4943732;29;20094;-58
2022/05/20 08:47:53;;;;;;;12.38;6.10;;;;;;;;;;4944137;29;20082;-58
2022/05/20 08:50:21;;;;;;;12.45;6.13;;;;;;;;;;4942837;29;20046;-59
2022/05/20 08:52:47;;;;;;;;;;;;;;;;;;4945060;28;20054;-59
2022/05/20 08:55:14;;;;;;;13.40;6.18;;;;;;;;;;4945968;29;19927;-58
2022/05/20 08:57:45;;;;;;;10.30;6.45;;;;;;;;;;4947624;29;20043;-58
2022/05/20 09:00:12;;;;;;;15.10;6.50;;;;;;;;;;4947401;29;20074;-59
2022/05/20 09:02:38;;;;;;;15.85;7.20;;;;;;;;;;4947434;29;20039;-58
2022/05/20 09:05:21;;;;;;;16.50;6.88;;;;;;;;;;4948126;29;20130;-58
2022/05/20 09:07:55;;;;;;;10.52;6.65;;;;;;;;;;4946723;28;20557;-59
2022/05/20 09:10:28;;;;;;;12.88;5.68;;;;;;;;;;4946026;29;20122;-58
2022/05/20 09:13:04;;;;;;;9.50;5.57;;;;;;;;;;4947327;29;20047;-58
2022/05/20 09:15:44;;;;;;;8.65;5.85;;;;;;;;;;4947502;29;20198;-58
2022/05/20 09:18:12;;;;;;;11.50;6.38;;;;;;;;;;4946953;29;20043;-59
2022/05/20 09:20:42;;;;;;;10.82;5.90;;;;;;;;;;4946740;29;20055;-58
2022/05/20 09:23:10;;;;;;;10.40;5.93;;;;;;;;;;4946903;28;20174;-59
2022/05/20 09:25:44;;;;;;;13.45;6.95;;;;;;;;;;4946387;29;20160;-58
2022/05/20 09:28:23;;;;;;;9.50;6.35;;;;;;;;;;4944114;29;20101;-59
2022/05/20 09:30:51;;;;;;;12.07;6.50;;;;;;;;;;4945796;28;20524;-58
2022/05/20 09:33:21;;;;;;;9.73;5.95;;;;;;;;;;4947450;29;20039;-58
2022/05/20 09:35:48;;;;;;;14.02;6.50;;;;;;;;;;4945958;29;20050;-58
2022/05/20 09:38:29;;;;;;;9.93;6.85;;;;;;;;;;4946666;28;20131;-58
2022/05/20 09:40:55;;;;;;;9.82;6.25;;;;;;;;;;4947162;29;20046;-58
2022/05/20 09:43:26;;;;;;;8.68;6.43;;;;;;;;;;4946576;29;20035;-58
2022/05/20 09:45:52;;;;;;;11.38;7.15;;;;;;;;;;4946795;29;20104;-58
2022/05/20 09:48:37;;;;;;;9.07;6.85;;;;;;;;;;4946647;29;20051;-58
2022/05/20 09:51:05;;;;;;;9.70;6.22;;;;;;;;;;4947208;29;20047;-58
2022/05/20 09:53:34;;;;;;;9.63;6.88;;;;;;;;;;4946352;29;20078;-58
2022/05/20 09:56:18;;;;;;;11.55;6.80;;;;;;;;;;4947272;29;20047;-59
2022/05/20 09:58:59;;;;;;;12.93;6.75;;;;;;;;;;4946360;29;20400;-58
2022/05/20 10:01:26;;;;;;;10.32;6.25;;;;;;;;;;4946337;29;20679;-59
2022/05/20 10:03:57;;;;;;;8.85;5.80;;;;;;;;;;4946744;29;20067;-58
2022/05/20 10:06:26;;;;;;;7.88;5.40;;;;;;;;;;4946093;28;20548;-58
2022/05/20 10:09:03;;;;;;;8.98;5.47;;;;;;;;;;4945333;29;20050;-57
2022/05/20 10:11:32;;;;;;;7.50;5.25;;;;;;;;;;4945901;28;20055;-58
2022/05/20 10:14:01;;;;;;;8.52;5.40;;;;;;;;;;4945971;29;20047;-58
2022/05/20 10:16:46;;;;;;;9.27;6.05;;;;;;;;;;4946016;29;20050;-58
2022/05/20 10:19:16;;;;;;;10.93;6.45;;;;;;;;;;4946124;29;20039;-58
2022/05/20 10:21:49;;;;;;;10.60;7.32;;;;;;;;;;4946076;29;20038;-59
2022/05/20 10:24:24;;;;;;;13.07;6.80;;;;;;;;;;4945078;29;20125;-58
2022/05/20 10:26:55;;;;;;;11.60;7.18;;;;;;;;;;4946047;29;20132;-59
2022/05/20 10:32:35;;;;;;;10.98;6.55;;;;;;;;;;4942751;29;20079;-58
2022/05/20 10:35:02;;;;;;;8.70;6.65;;;;;;;;;;4943984;29;20125;-58
2022/05/20 10:37:40;;;;;;;9.77;6.47;;;;;;;;;;4941927;29;20054;-58
2022/05/20 10:40:06;;;;;;;10.23;6.82;;;;;;;;;;4943029;28;20047;-58
2022/05/20 10:42:43;;;;;;;11.60;6.55;;;;;;;;;;4943995;29;20050;-58
2022/05/20 10:50:58;;;;;;;13.13;6.13;;;;;;;;;;4945268;29;20520;-59
2022/05/20 10:53:37;;;;;;;11.98;7.90;;;;;;;;;;4942611;29;20273;-58
2022/05/20 10:56:14;;;;;;;12.10;6.20;;;;;;;;;;4946163;29;20544;-59
2022/05/20 10:58:48;;;;;;;12.65;8.68;;;;;;;;;;4942280;29;20047;-59
2022/05/20 11:01:17;;;;;;;10.88;7.60;;;;;;;;;;4943850;29;20051;-59
2022/05/20 11:03:56;;;;;;;14.05;8.25;;;;;;;;;;4939227;29;20548;-59
2022/05/20 11:06:40;;;;;;;12.05;8.35;;;;;;;;;;4942559;28;20579;-59
2022/05/20 11:09:19;;;;;;;12.52;7.97;;;;;;;;;;4941470;29;20273;-59
2022/05/20 11:11:57;;;;;;;11.95;7.95;;;;;;;;;;4943739;29;20054;-58
2022/05/20 11:14:34;;;;;;;10.65;6.90;;;;;;;;;;4943506;29;20516;-59
2022/05/20 11:17:07;;;;;;;9.85;6.68;;;;;;;;;;4945491;28;20107;-59
2022/05/20 11:19:52;;;;;;;10.10;6.15;;;;;;;;;;4943972;29;20047;-58
2022/05/20 11:22:25;;;;;;;12.98;7.13;;;;;;;;;;4943613;29;20050;-58
2022/05/20 11:24:53;;;;;;;11.25;6.63;;;;;;;;;;4944206;28;20133;-58
2022/05/20 11:27:19;;;;;;;8.45;5.35;;;;;;;;;;4944894;29;20083;-57
2022/05/20 11:30:03;;;;;;;6.50;4.32;;;;;;;;;;4943081;29;20090;-58
2022/05/20 11:32:41;;;;;;;4.97;3.67;;;;;;;;;;4943107;29;20047;-58
2022/05/20 11:35:12;;;;;;;5.15;3.10;;;;;;;;;;4942602;29;20481;-59
2022/05/20 11:38:03;;;;;;;3.97;2.55;;;;;;;;;;4943833;29;20094;-59
2022/05/20 11:40:34;;;;;;;6.57;2.50;;;;;;;;;;4943007;29;20681;-58
2022/05/20 11:43:06;;;;;;;5.63;3.88;;;;;;;;;;4941820;29;20078;-59
2022/05/20 11:45:44;;;;;;;4.47;3.50;;;;;;;;;;4942617;29;20039;-58
2022/05/20 11:48:20;;;;;;;5.25;3.22;;;;;;;;;;4942524;29;20039;-59
2022/05/20 11:51:01;;;;;;;4.60;2.85;;;;;;;;;;4944344;28;20046;-58
2022/05/20 11:53:37;;;;;;;5.88;2.50;;;;;;;;;;4942895;29;20043;-58
2022/05/20 11:56:08;;;;;;;6.93;3.55;;;;;;;;;;4945609;28;20055;-59
2022/05/20 11:58:40;;;;;;;5.03;3.35;;;;;;;;;;4944714;29;20058;-58
2022/05/20 12:01:08;;;;;;;6.10;4.00;;;;;;;;;;4943151;29;20101;-59
2022/05/20 12:06:21;;;;;;;9.75;4.15;;;;;;;;;;4943189;29;20141;-58
2022/05/20 12:08:50;;;;;;;8.48;3.63;;;;;;;;;;4941422;29;20039;-58
2022/05/20 12:11:37;;;;;;;6.43;3.50;;;;;;;;;;4943739;29;20493;-58
2022/05/20 12:14:09;;;;;;;7.15;3.60;;;;;;;;;;4944285;29;20062;-58
2022/05/20 12:16:53;;;;;;;6.80;3.30;;;;;;;;;;4943964;29;20453;-58
2022/05/20 12:24:53;;;;;;;4.35;2.72;;;;;;;;;;4941062;29;20138;-58
2022/05/20 12:27:23;;;;;;;5.53;2.80;;;;;;;;;;4943480;29;20050;-59
2022/05/20 12:29:55;;;;;;;5.25;3.15;;;;;;;;;;4946793;29;20043;-59
2022/05/20 12:32:27;;;;;;;5.97;3.45;;;;;;;;;;4948150;29;20039;-59
2022/05/20 12:34:56;;;;;;;3.72;2.30;;;;;;;;;;4946324;29;20046;-59
2022/05/20 12:37:41;;;;;;;3.92;2.50;;;;;;;;;;4943107;29;20047;-59
2022/05/20 12:40:16;;;;;;;4.07;2.72;;;;;;;;;;4939354;29;20051;-59
2022/05/20 12:42:46;;;;;;;5.85;4.32;;;;;;;;;;4942746;29;20127;-60
2022/05/20 12:45:12;;;;;;;5.50;4.00;;;;;;;;;;4938485;29;20134;-60
2022/05/20 12:47:38;;;;;;;6.18;3.90;;;;;;;;;;4937398;29;20521;-58
2022/05/20 12:50:06;;;;;;;7.70;4.82;;;;;;;;;;4940623;29;20047;-59
2022/05/20 12:52:34;;;;;;;8.68;4.95;;;;;;;;;;4947833;29;20047;-57
2022/05/20 12:55:12;;;;;;;7.75;4.80;;;;;;;;;;4948792;29;20066;-58
2022/05/20 12:57:47;;;;;;;9.18;4.97;;;;;;;;;;4947818;29;20035;-58
2022/05/20 13:00:15;;;;;;;5.75;3.92;;;;;;;;;;4947208;29;20129;-58
2022/05/20 13:02:43;;;;;;;8.80;4.43;;;;;;;;;;4945872;29;20138;-58
2022/05/20 13:05:09;;;;;;;5.82;4.78;;;;;;;;;;4949316;29;20074;-58
2022/05/20 13:07:39;;;;;;;8.10;4.80;;;;;;;;;;4948290;29;20564;-59
2022/05/20 13:10:20;;;;;;;7.45;5.15;;;;;;;;;;4944920;29;20091;-59
2022/05/20 13:12:51;;;;;;;9.70;5.22;;;;;;;;;;4931519;29;20076;-58
2022/05/20 13:15:19;;;;;;;11.25;5.57;;;;;;;;;;4941887;29;20054;-58
2022/05/20 13:18:00;;;;;;;7.97;6.22;;;;;;;;;;4930014;29;20051;-58
2022/05/20 13:20:28;;;;;;;11.88;7.80;;;;;;;;;;4930405;29;20095;-58
2022/05/20 13:22:58;;;;;;;15.93;7.73;;;;;;;;;;4932596;29;20048;-58
2022/05/20 13:25:24;;;;;;;14.82;10.23;;;;;;;;;;4929710;29;21298;-58
2022/05/20 13:27:50;;;;;;;13.05;9.57;;;;;;;;;;4933716;29;20103;-58
2022/05/20 13:30:19;;;;;;;15.43;10.57;;;;;;;;;;4933600;29;20062;-58
2022/05/20 13:32:45;;;;;;;14.13;10.45;;;;;;;;;;4931702;29;20497;-59
2022/05/20 13:35:12;;;;;;;17.98;11.85;;;;;;;;;;4929846;29;20783;-58
2022/05/20 13:37:40;;;;;;;14.48;12.18;;;;;;;;;;4929324;29;20113;-59
2022/05/20 13:40:20;;;;;;;20.00;12.63;;;;;;;;;;4928350;29;20071;-58
2022/05/20 13:42:48;;;;;;;18.95;12.52;;;;;;;;;;4932516;29;20442;-58
2022/05/20 13:45:16;;;;;;;20.83;13.82;;;;;;;;;;4934493;29;20076;-58
2022/05/20 13:50:35;;;;;;;22.33;14.60;;;;;;;;;;4928830;28;20099;-58
2022/05/20 13:53:01;;;;;;;25.65;14.40;;;;;;;;;;4928772;29;20127;-58
2022/05/20 13:55:31;;;;;;;22.40;14.55;;;;;;;;;;4929007;29;20071;-58
2022/05/20 13:57:58;;;;;;;22.33;15.23;;;;;;;;;;4928911;29;20043;-58
2022/05/20 14:00:28;;;;;;;30.90;19.17;;;;;;;;;;4934119;29;20134;-57
2022/05/20 14:02:59;;;;;;;23.52;15.65;;;;;;;;;;4930612;29;20668;-57
2022/05/20 14:05:30;;;;;;;26.17;16.08;;;;;;;;;;4948387;29;20090;-58
2022/05/20 14:08:01;;;;;;;29.33;16.48;;;;;;;;;;4947376;29;20046;-58
2022/05/20 14:10:28;;;;;;;25.90;16.20;;;;;;;;;;4947886;29;20049;-58
2022/05/20 14:12:57;;;;;;;29.77;16.63;;;;;;;;;;4947950;29;20106;-57
2022/05/20 14:15:28;;;;;;;29.42;17.15;;;;;;;;;;4948120;29;20051;-58
2022/05/20 14:17:56;;;;;;;27.25;16.20;;;;;;;;;;4948606;29;20074;-57
2022/05/20 14:20:22;;;;;;;27.85;16.80;;;;;;;;;;4947922;29;20062;-57
2022/05/20 14:22:49;;;;;;;35.38;17.63;;;;;;;;;;4948030;29;20058;-56
2022/05/20 14:25:21;;;;;;;35.88;18.48;;;;;;;;;;4948193;29;20035;-57
2022/05/20 14:27:48;;;;;;;31.60;16.42;;;;;;;;;;4948115;29;20489;-58
2022/05/20 14:30:23;;;;;;;27.15;16.80;;;;;;;;;;4948298;29;20081;-57
2022/05/20 14:32:51;;;;;;;32.00;17.20;;;;;;;;;;4948535;29;20122;-58
2022/05/20 14:35:19;;;;;;;26.67;16.42;;;;;;;;;;4947697;28;20386;-57
2022/05/20 14:37:45;;;;;;;27.30;15.40;;;;;;;;;;4948510;28;20039;-58
2022/05/20 14:40:14;;;;;;;30.48;16.73;;;;;;;;;;4947084;29;20051;-58
2022/05/20 14:42:42;;;;;;;30.75;17.45;;;;;;;;;;4947172;28;20094;-57
2022/05/20 14:45:14;;;;;;;31.73;18.30;;;;;;;;;;4948165;29;20054;-58
2022/05/20 14:47:41;;;;;;;29.85;18.25;;;;;;;;;;4947837;29;20464;-58
2022/05/20 14:50:17;;;;;;;39.53;19.70;;;;;;;;;;4947753;29;20482;-58
2022/05/20 14:52:45;;;;;;;34.33;20.60;;;;;;;;;;4946699;28;20075;-57
2022/05/20 14:55:21;;;;;;;35.97;19.98;;;;;;;;;;4947331;28;20545;-57
2022/05/20 14:58:01;;;;;;;35.25;21.02;;;;;;;;;;4948145;28;20047;-58
2022/05/20 15:00:29;;;;;;;31.00;18.55;;;;;;;;;;4947209;28;20544;-57
2022/05/20 15:02:56;;;;;;;29.60;18.50;;;;;;;;;;4947087;29;20051;-58
2022/05/20 15:05:24;;;;;;;32.80;20.02;;;;;;;;;;4944296;29;20043;-57
2022/05/20 15:07:55;;;;;;;33.75;19.00;;;;;;;;;;4935069;29;20039;-57
2022/05/20 15:10:21;;;;;;;28.13;17.52;;;;;;;;;;4931270;29;20472;-57
2022/05/20 15:12:48;;;;;;;31.77;18.48;;;;;;;;;;4933274;29;20087;-57
2022/05/20 15:15:16;;;;;;;33.83;17.45;;;;;;;;;;4927675;29;20044;-58
2022/05/20 15:17:56;;;;;;;29.67;16.35;;;;;;;;;;4929026;29;20063;-58
2022/05/20 15:20:22;;;;;;;26.10;16.15;;;;;;;;;;4941084;29;20509;-57
2022/05/20 15:22:49;;;;;;;29.85;15.57;;;;;;;;;;4936935;28;20430;-57
2022/05/20 15:25:16;;;;;;;25.35;14.15;;;;;;;;;;4937606;28;20409;-57